sensor_id;sensor_type;location;lat;lon;timestamp;P1;durP1;ratioP1;P2;durP2;ratioP2
74245;SDS011;62601;51.044;13.788;2022-11-03T00:00:30;9.77;;;4.80;;
74245;SDS011;62601;51.044;13.788;2022-11-03T00:02:52;7.30;;;4.30;;
74245;SDS011;62601;51.044;13.788;2022-11-03T00:05:12;8.48;;;5.68;;
74245;SDS011;62601;51.044;13.788;2022-11-03T00:07:32;8.63;;;5.25;;
74245;SDS011;62601;51.044;13.788;2022-11-03T00:09:52;9.00;;;4.80;;
74245;SDS011;62601;51.044;13.788;2022-11-03T00:12:14;6.68;;;4.57;;
74245;SDS011;62601;51.044;13.788;2022-11-03T00:14:35;7.45;;;4.50;;
74245;SDS011;62601;51.044;13.788;2022-11-03T00:16:55;6.57;;;4.28;;
74245;SDS011;62601;51.044;13.788;2022-11-03T00:19:15;7.82;;;4.68;;
74245;SDS011;62601;51.044;13.788;2022-11-03T00:21:36;9.57;;;4.30;;
74245;SDS011;62601;51.044;13.788;2022-11-03T00:23:58;5.68;;;4.18;;
74245;SDS011;62601;51.044;13.788;2022-11-03T00:26:25;9.27;;;4.80;;
74245;SDS011;62601;51.044;13.788;2022-11-03T00:28:48;8.85;;;4.28;;
74245;SDS011;62601;51.044;13.788;2022-11-03T00:31:10;6.93;;;4.47;;
74245;SDS011;62601;51.044;13.788;2022-11-03T00:33:32;8.10;;;4.95;;
74245;SDS011;62601;51.044;13.788;2022-11-03T00:35:57;6.53;;;4.85;;
74245;SDS011;62601;51.044;13.788;2022-11-03T00:38:17;9.68;;;4.47;;
74245;SDS011;62601;51.044;13.788;2022-11-03T00:40:39;6.05;;;4.40;;
74245;SDS011;62601;51.044;13.788;2022-11-03T00:43:00;8.38;;;4.95;;
74245;SDS011;62601;51.044;13.788;2022-11-03T00:45:21;7.05;;;5.53;;
74245;SDS011;62601;51.044;13.788;2022-11-03T00:47:43;7.53;;;5.65;;
74245;SDS011;62601;51.044;13.788;2022-11-03T00:50:03;9.30;;;6.53;;
74245;SDS011;62601;51.044;13.788;2022-11-03T00:52:28;7.03;;;4.78;;
74245;SDS011;62601;51.044;13.788;2022-11-03T00:54:49;7.22;;;5.03;;
74245;SDS011;62601;51.044;13.788;2022-11-03T00:57:11;11.70;;;5.55;;
74245;SDS011;62601;51.044;13.788;2022-11-03T00:59:32;8.45;;;5.10;;
74245;SDS011;62601;51.044;13.788;2022-11-03T01:01:57;12.80;;;5.53;;
74245;SDS011;62601;51.044;13.788;2022-11-03T01:04:19;10.45;;;5.90;;
74245;SDS011;62601;51.044;13.788;2022-11-03T01:06:41;6.85;;;4.88;;
74245;SDS011;62601;51.044;13.788;2022-11-03T01:09:02;8.27;;;5.75;;
74245;SDS011;62601;51.044;13.788;2022-11-03T01:11:23;6.70;;;5.15;;
74245;SDS011;62601;51.044;13.788;2022-11-03T01:13:45;7.72;;;4.68;;
74245;SDS011;62601;51.044;13.788;2022-11-03T01:16:05;8.45;;;5.50;;
74245;SDS011;62601;51.044;13.788;2022-11-03T01:18:26;6.75;;;5.18;;
74245;SDS011;62601;51.044;13.788;2022-11-03T01:20:52;7.47;;;5.10;;
74245;SDS011;62601;51.044;13.788;2022-11-03T01:23:13;10.15;;;5.03;;
74245;SDS011;62601;51.044;13.788;2022-11-03T01:25:34;9.13;;;5.50;;
74245;SDS011;62601;51.044;13.788;2022-11-03T01:27:56;10.43;;;5.20;;
74245;SDS011;62601;51.044;13.788;2022-11-03T01:30:17;9.20;;;5.95;;
74245;SDS011;62601;51.044;13.788;2022-11-03T01:32:39;9.00;;;5.63;;
74245;SDS011;62601;51.044;13.788;2022-11-03T01:35:00;5.43;;;4.90;;
74245;SDS011;62601;51.044;13.788;2022-11-03T01:37:23;9.75;;;5.60;;
74245;SDS011;62601;51.044;13.788;2022-11-03T01:39:44;7.93;;;6.10;;
74245;SDS011;62601;51.044;13.788;2022-11-03T01:42:06;9.23;;;5.47;;
74245;SDS011;62601;51.044;13.788;2022-11-03T01:44:31;7.75;;;5.10;;
74245;SDS011;62601;51.044;13.788;2022-11-03T01:47:12;9.65;;;5.95;;
74245;SDS011;62601;51.044;13.788;2022-11-03T01:49:51;6.95;;;5.20;;
74245;SDS011;62601;51.044;13.788;2022-11-03T01:52:15;7.85;;;5.15;;
74245;SDS011;62601;51.044;13.788;2022-11-03T01:54:37;9.98;;;6.22;;
74245;SDS011;62601;51.044;13.788;2022-11-03T01:56:57;8.07;;;5.50;;
74245;SDS011;62601;51.044;13.788;2022-11-03T01:59:20;9.35;;;5.95;;
74245;SDS011;62601;51.044;13.788;2022-11-03T02:01:45;8.40;;;5.35;;
74245;SDS011;62601;51.044;13.788;2022-11-03T02:04:12;8.15;;;5.90;;
74245;SDS011;62601;51.044;13.788;2022-11-03T02:06:34;11.20;;;5.45;;
74245;SDS011;62601;51.044;13.788;2022-11-03T02:08:59;8.35;;;5.45;;
74245;SDS011;62601;51.044;13.788;2022-11-03T02:11:22;9.65;;;5.55;;
74245;SDS011;62601;51.044;13.788;2022-11-03T02:13:43;8.80;;;5.90;;
74245;SDS011;62601;51.044;13.788;2022-11-03T02:16:05;6.28;;;5.10;;
74245;SDS011;62601;51.044;13.788;2022-11-03T02:18:27;14.48;;;5.50;;
74245;SDS011;62601;51.044;13.788;2022-11-03T02:20:52;11.57;;;6.30;;
74245;SDS011;62601;51.044;13.788;2022-11-03T02:25:45;10.75;;;6.32;;
74245;SDS011;62601;51.044;13.788;2022-11-03T02:28:06;11.20;;;6.40;;
74245;SDS011;62601;51.044;13.788;2022-11-03T02:30:28;12.02;;;6.25;;
74245;SDS011;62601;51.044;13.788;2022-11-03T02:33:02;11.10;;;6.00;;
74245;SDS011;62601;51.044;13.788;2022-11-03T02:35:29;9.45;;;6.20;;
74245;SDS011;62601;51.044;13.788;2022-11-03T02:37:52;9.02;;;5.78;;
74245;SDS011;62601;51.044;13.788;2022-11-03T02:40:26;9.10;;;6.30;;
74245;SDS011;62601;51.044;13.788;2022-11-03T02:42:49;9.15;;;6.40;;
74245;SDS011;62601;51.044;13.788;2022-11-03T02:45:11;9.68;;;5.65;;
74245;SDS011;62601;51.044;13.788;2022-11-03T02:47:34;16.73;;;6.68;;
74245;SDS011;62601;51.044;13.788;2022-11-03T02:49:55;10.05;;;6.45;;
74245;SDS011;62601;51.044;13.788;2022-11-03T02:54:56;10.27;;;6.80;;
74245;SDS011;62601;51.044;13.788;2022-11-03T02:57:21;9.32;;;5.47;;
74245;SDS011;62601;51.044;13.788;2022-11-03T02:59:57;8.73;;;5.75;;
74245;SDS011;62601;51.044;13.788;2022-11-03T03:02:34;9.98;;;6.25;;
74245;SDS011;62601;51.044;13.788;2022-11-03T03:04:58;10.55;;;6.32;;
74245;SDS011;62601;51.044;13.788;2022-11-03T03:07:26;12.52;;;6.45;;
74245;SDS011;62601;51.044;13.788;2022-11-03T03:12:46;7.05;;;5.50;;
74245;SDS011;62601;51.044;13.788;2022-11-03T03:15:10;9.68;;;6.00;;
74245;SDS011;62601;51.044;13.788;2022-11-03T03:20:04;8.88;;;5.57;;
74245;SDS011;62601;51.044;13.788;2022-11-03T03:22:33;8.13;;;5.60;;
74245;SDS011;62601;51.044;13.788;2022-11-03T03:27:48;13.63;;;6.30;;
74245;SDS011;62601;51.044;13.788;2022-11-03T03:30:14;10.48;;;6.28;;
74245;SDS011;62601;51.044;13.788;2022-11-03T03:32:49;11.43;;;5.95;;
74245;SDS011;62601;51.044;13.788;2022-11-03T03:35:12;10.07;;;5.78;;
74245;SDS011;62601;51.044;13.788;2022-11-03T03:37:44;13.65;;;7.35;;
74245;SDS011;62601;51.044;13.788;2022-11-03T03:40:06;12.02;;;6.68;;
74245;SDS011;62601;51.044;13.788;2022-11-03T03:42:27;10.25;;;6.30;;
74245;SDS011;62601;51.044;13.788;2022-11-03T03:44:49;9.30;;;6.07;;
74245;SDS011;62601;51.044;13.788;2022-11-03T03:47:30;7.07;;;5.75;;
74245;SDS011;62601;51.044;13.788;2022-11-03T03:49:53;10.50;;;6.78;;
74245;SDS011;62601;51.044;13.788;2022-11-03T03:52:17;10.50;;;6.50;;
74245;SDS011;62601;51.044;13.788;2022-11-03T03:54:42;11.93;;;6.63;;
74245;SDS011;62601;51.044;13.788;2022-11-03T03:57:04;9.00;;;6.15;;
74245;SDS011;62601;51.044;13.788;2022-11-03T03:59:27;11.85;;;6.18;;
74245;SDS011;62601;51.044;13.788;2022-11-03T04:01:51;8.73;;;6.60;;
74245;SDS011;62601;51.044;13.788;2022-11-03T04:04:13;12.63;;;6.35;;
74245;SDS011;62601;51.044;13.788;2022-11-03T04:06:34;9.57;;;6.40;;
74245;SDS011;62601;51.044;13.788;2022-11-03T04:08:56;10.20;;;6.53;;
74245;SDS011;62601;51.044;13.788;2022-11-03T04:11:16;11.75;;;6.00;;
74245;SDS011;62601;51.044;13.788;2022-11-03T04:13:37;8.60;;;5.95;;
74245;SDS011;62601;51.044;13.788;2022-11-03T04:15:59;8.82;;;6.22;;
74245;SDS011;62601;51.044;13.788;2022-11-03T04:18:20;10.10;;;6.65;;
74245;SDS011;62601;51.044;13.788;2022-11-03T04:20:42;8.50;;;6.15;;
74245;SDS011;62601;51.044;13.788;2022-11-03T04:23:03;9.85;;;6.20;;
74245;SDS011;62601;51.044;13.788;2022-11-03T04:25:24;11.48;;;6.78;;
74245;SDS011;62601;51.044;13.788;2022-11-03T04:27:46;13.52;;;6.03;;
74245;SDS011;62601;51.044;13.788;2022-11-03T04:30:16;8.80;;;6.30;;
74245;SDS011;62601;51.044;13.788;2022-11-03T04:32:37;8.57;;;6.13;;
74245;SDS011;62601;51.044;13.788;2022-11-03T04:34:59;7.80;;;5.90;;
74245;SDS011;62601;51.044;13.788;2022-11-03T04:37:20;13.18;;;6.38;;
74245;SDS011;62601;51.044;13.788;2022-11-03T04:39:40;8.75;;;6.07;;
74245;SDS011;62601;51.044;13.788;2022-11-03T04:42:03;10.88;;;6.43;;
74245;SDS011;62601;51.044;13.788;2022-11-03T04:44:32;9.48;;;6.15;;
74245;SDS011;62601;51.044;13.788;2022-11-03T04:46:53;12.20;;;8.05;;
74245;SDS011;62601;51.044;13.788;2022-11-03T04:49:17;13.40;;;7.25;;
74245;SDS011;62601;51.044;13.788;2022-11-03T04:51:41;7.57;;;5.82;;
74245;SDS011;62601;51.044;13.788;2022-11-03T04:54:06;9.13;;;6.78;;
74245;SDS011;62601;51.044;13.788;2022-11-03T04:56:36;10.82;;;6.72;;
74245;SDS011;62601;51.044;13.788;2022-11-03T04:58:58;12.10;;;6.93;;
74245;SDS011;62601;51.044;13.788;2022-11-03T05:01:23;9.43;;;6.35;;
74245;SDS011;62601;51.044;13.788;2022-11-03T05:03:43;9.85;;;7.25;;
74245;SDS011;62601;51.044;13.788;2022-11-03T05:06:11;11.95;;;7.05;;
74245;SDS011;62601;51.044;13.788;2022-11-03T05:08:33;13.45;;;7.00;;
74245;SDS011;62601;51.044;13.788;2022-11-03T05:10:54;13.50;;;7.50;;
74245;SDS011;62601;51.044;13.788;2022-11-03T05:13:22;14.77;;;7.35;;
74245;SDS011;62601;51.044;13.788;2022-11-03T05:15:44;10.45;;;7.35;;
74245;SDS011;62601;51.044;13.788;2022-11-03T05:18:14;14.27;;;8.23;;
74245;SDS011;62601;51.044;13.788;2022-11-03T05:20:37;18.30;;;10.25;;
74245;SDS011;62601;51.044;13.788;2022-11-03T05:22:59;13.90;;;7.70;;
74245;SDS011;62601;51.044;13.788;2022-11-03T05:26:03;12.63;;;7.75;;
74245;SDS011;62601;51.044;13.788;2022-11-03T05:28:19;16.98;;;7.13;;
74245;SDS011;62601;51.044;13.788;2022-11-03T05:30:41;12.70;;;7.63;;
74245;SDS011;62601;51.044;13.788;2022-11-03T05:33:09;11.40;;;7.75;;
74245;SDS011;62601;51.044;13.788;2022-11-03T05:35:32;10.63;;;7.88;;
74245;SDS011;62601;51.044;13.788;2022-11-03T05:37:54;11.00;;;8.40;;
74245;SDS011;62601;51.044;13.788;2022-11-03T05:40:21;16.83;;;7.88;;
74245;SDS011;62601;51.044;13.788;2022-11-03T05:42:55;15.35;;;7.93;;
74245;SDS011;62601;51.044;13.788;2022-11-03T05:45:23;14.95;;;7.88;;
74245;SDS011;62601;51.044;13.788;2022-11-03T05:47:46;12.15;;;8.48;;
74245;SDS011;62601;51.044;13.788;2022-11-03T05:50:15;12.60;;;7.70;;
74245;SDS011;62601;51.044;13.788;2022-11-03T05:52:38;12.60;;;7.43;;
74245;SDS011;62601;51.044;13.788;2022-11-03T05:55:00;12.35;;;7.80;;
74245;SDS011;62601;51.044;13.788;2022-11-03T05:57:22;19.25;;;8.05;;
74245;SDS011;62601;51.044;13.788;2022-11-03T05:59:44;14.02;;;8.02;;
74245;SDS011;62601;51.044;13.788;2022-11-03T06:02:12;15.55;;;7.30;;
74245;SDS011;62601;51.044;13.788;2022-11-03T06:04:38;14.57;;;8.38;;
74245;SDS011;62601;51.044;13.788;2022-11-03T06:06:59;15.35;;;7.30;;
74245;SDS011;62601;51.044;13.788;2022-11-03T06:09:22;11.32;;;7.28;;
74245;SDS011;62601;51.044;13.788;2022-11-03T06:11:55;10.73;;;7.40;;
74245;SDS011;62601;51.044;13.788;2022-11-03T06:14:27;12.23;;;8.55;;
74245;SDS011;62601;51.044;13.788;2022-11-03T06:16:53;14.27;;;8.45;;
74245;SDS011;62601;51.044;13.788;2022-11-03T06:24:39;13.32;;;7.60;;
74245;SDS011;62601;51.044;13.788;2022-11-03T06:27:01;13.52;;;7.57;;
74245;SDS011;62601;51.044;13.788;2022-11-03T06:29:22;11.00;;;7.75;;
74245;SDS011;62601;51.044;13.788;2022-11-03T06:31:43;15.13;;;8.48;;
74245;SDS011;62601;51.044;13.788;2022-11-03T06:34:42;11.95;;;7.50;;
74245;SDS011;62601;51.044;13.788;2022-11-03T06:36:58;11.80;;;7.63;;
74245;SDS011;62601;51.044;13.788;2022-11-03T06:39:26;13.77;;;8.80;;
74245;SDS011;62601;51.044;13.788;2022-11-03T06:41:46;14.43;;;7.90;;
74245;SDS011;62601;51.044;13.788;2022-11-03T06:44:22;16.92;;;9.90;;
74245;SDS011;62601;51.044;13.788;2022-11-03T06:46:44;13.35;;;8.23;;
74245;SDS011;62601;51.044;13.788;2022-11-03T06:49:15;14.43;;;9.18;;
74245;SDS011;62601;51.044;13.788;2022-11-03T06:51:41;13.57;;;7.90;;
74245;SDS011;62601;51.044;13.788;2022-11-03T06:54:01;20.42;;;12.60;;
74245;SDS011;62601;51.044;13.788;2022-11-03T06:56:30;22.20;;;11.40;;
74245;SDS011;62601;51.044;13.788;2022-11-03T06:58:55;17.02;;;7.85;;
74245;SDS011;62601;51.044;13.788;2022-11-03T07:01:29;17.55;;;7.70;;
74245;SDS011;62601;51.044;13.788;2022-11-03T07:03:51;10.30;;;7.43;;
74245;SDS011;62601;51.044;13.788;2022-11-03T07:06:20;14.18;;;8.38;;
74245;SDS011;62601;51.044;13.788;2022-11-03T07:08:44;11.85;;;7.55;;
74245;SDS011;62601;51.044;13.788;2022-11-03T07:11:21;10.63;;;7.40;;
74245;SDS011;62601;51.044;13.788;2022-11-03T07:13:43;17.25;;;7.95;;
74245;SDS011;62601;51.044;13.788;2022-11-03T07:16:10;12.23;;;6.95;;
74245;SDS011;62601;51.044;13.788;2022-11-03T07:18:35;16.40;;;5.82;;
74245;SDS011;62601;51.044;13.788;2022-11-03T07:21:35;11.30;;;5.10;;
74245;SDS011;62601;51.044;13.788;2022-11-03T07:23:50;11.43;;;4.82;;
74245;SDS011;62601;51.044;13.788;2022-11-03T07:26:14;10.50;;;4.80;;
74245;SDS011;62601;51.044;13.788;2022-11-03T07:28:36;9.10;;;4.93;;
74245;SDS011;62601;51.044;13.788;2022-11-03T07:31:14;8.90;;;5.28;;
74245;SDS011;62601;51.044;13.788;2022-11-03T07:33:36;11.40;;;5.40;;
74245;SDS011;62601;51.044;13.788;2022-11-03T07:35:57;9.32;;;4.50;;
74245;SDS011;62601;51.044;13.788;2022-11-03T07:38:19;7.15;;;4.47;;
74245;SDS011;62601;51.044;13.788;2022-11-03T07:40:40;12.73;;;5.72;;
74245;SDS011;62601;51.044;13.788;2022-11-03T07:43:08;9.10;;;4.72;;
74245;SDS011;62601;51.044;13.788;2022-11-03T07:45:43;13.68;;;6.05;;
74245;SDS011;62601;51.044;13.788;2022-11-03T07:48:30;9.43;;;4.43;;
74245;SDS011;62601;51.044;13.788;2022-11-03T07:50:56;6.65;;;5.15;;
74245;SDS011;62601;51.044;13.788;2022-11-03T07:55:43;7.88;;;5.28;;
74245;SDS011;62601;51.044;13.788;2022-11-03T07:58:13;10.93;;;6.22;;
74245;SDS011;62601;51.044;13.788;2022-11-03T08:00:38;8.15;;;4.95;;
74245;SDS011;62601;51.044;13.788;2022-11-03T08:03:00;7.20;;;3.90;;
74245;SDS011;62601;51.044;13.788;2022-11-03T08:05:23;7.55;;;4.38;;
74245;SDS011;62601;51.044;13.788;2022-11-03T08:07:43;8.18;;;3.92;;
74245;SDS011;62601;51.044;13.788;2022-11-03T08:10:04;7.90;;;4.28;;
74245;SDS011;62601;51.044;13.788;2022-11-03T08:12:25;8.02;;;4.30;;
74245;SDS011;62601;51.044;13.788;2022-11-03T08:14:47;5.93;;;3.85;;
74245;SDS011;62601;51.044;13.788;2022-11-03T08:17:08;8.52;;;4.30;;
74245;SDS011;62601;51.044;13.788;2022-11-03T08:19:29;7.20;;;4.80;;
74245;SDS011;62601;51.044;13.788;2022-11-03T08:21:51;6.75;;;3.78;;
74245;SDS011;62601;51.044;13.788;2022-11-03T08:24:11;7.95;;;4.20;;
74245;SDS011;62601;51.044;13.788;2022-11-03T08:26:33;8.00;;;5.05;;
74245;SDS011;62601;51.044;13.788;2022-11-03T08:28:56;6.15;;;4.10;;
74245;SDS011;62601;51.044;13.788;2022-11-03T08:31:17;7.10;;;4.60;;
74245;SDS011;62601;51.044;13.788;2022-11-03T08:33:38;5.43;;;3.63;;
74245;SDS011;62601;51.044;13.788;2022-11-03T08:36:03;6.93;;;4.22;;
74245;SDS011;62601;51.044;13.788;2022-11-03T08:38:24;9.90;;;4.07;;
74245;SDS011;62601;51.044;13.788;2022-11-03T08:40:45;8.10;;;4.20;;
74245;SDS011;62601;51.044;13.788;2022-11-03T08:43:06;8.95;;;3.60;;
74245;SDS011;62601;51.044;13.788;2022-11-03T08:45:28;7.93;;;3.85;;
74245;SDS011;62601;51.044;13.788;2022-11-03T08:47:50;6.20;;;4.13;;
74245;SDS011;62601;51.044;13.788;2022-11-03T08:50:11;6.07;;;3.80;;
74245;SDS011;62601;51.044;13.788;2022-11-03T08:52:35;10.35;;;4.30;;
74245;SDS011;62601;51.044;13.788;2022-11-03T08:54:57;6.97;;;3.80;;
74245;SDS011;62601;51.044;13.788;2022-11-03T08:57:18;5.60;;;4.20;;
74245;SDS011;62601;51.044;13.788;2022-11-03T08:59:40;8.10;;;4.00;;
74245;SDS011;62601;51.044;13.788;2022-11-03T09:02:04;12.70;;;4.00;;
74245;SDS011;62601;51.044;13.788;2022-11-03T09:04:25;7.57;;;4.45;;
74245;SDS011;62601;51.044;13.788;2022-11-03T09:06:47;9.10;;;4.50;;
74245;SDS011;62601;51.044;13.788;2022-11-03T09:09:08;7.80;;;4.50;;
74245;SDS011;62601;51.044;13.788;2022-11-03T09:11:29;8.05;;;4.00;;
74245;SDS011;62601;51.044;13.788;2022-11-03T09:13:49;8.38;;;3.95;;
74245;SDS011;62601;51.044;13.788;2022-11-03T09:16:10;6.78;;;4.13;;
74245;SDS011;62601;51.044;13.788;2022-11-03T09:18:31;10.25;;;3.90;;
74245;SDS011;62601;51.044;13.788;2022-11-03T09:20:52;6.28;;;3.70;;
74245;SDS011;62601;51.044;13.788;2022-11-03T09:23:14;6.65;;;4.00;;
74245;SDS011;62601;51.044;13.788;2022-11-03T09:25:35;6.22;;;3.47;;
74245;SDS011;62601;51.044;13.788;2022-11-03T09:27:56;7.80;;;3.90;;
74245;SDS011;62601;51.044;13.788;2022-11-03T09:30:18;6.15;;;3.53;;
74245;SDS011;62601;51.044;13.788;2022-11-03T09:32:38;8.00;;;3.45;;
74245;SDS011;62601;51.044;13.788;2022-11-03T09:34:59;5.68;;;3.70;;
74245;SDS011;62601;51.044;13.788;2022-11-03T09:37:19;5.90;;;3.38;;
74245;SDS011;62601;51.044;13.788;2022-11-03T09:39:44;5.35;;;3.17;;
74245;SDS011;62601;51.044;13.788;2022-11-03T09:42:05;4.50;;;3.42;;
74245;SDS011;62601;51.044;13.788;2022-11-03T09:44:27;11.38;;;3.80;;
74245;SDS011;62601;51.044;13.788;2022-11-03T09:46:48;5.45;;;3.72;;
74245;SDS011;62601;51.044;13.788;2022-11-03T09:49:11;7.03;;;4.47;;
74245;SDS011;62601;51.044;13.788;2022-11-03T09:51:35;8.45;;;4.15;;
74245;SDS011;62601;51.044;13.788;2022-11-03T09:53:57;8.70;;;4.95;;
74245;SDS011;62601;51.044;13.788;2022-11-03T09:56:20;6.13;;;3.50;;
74245;SDS011;62601;51.044;13.788;2022-11-03T09:58:42;13.68;;;9.50;;
74245;SDS011;62601;51.044;13.788;2022-11-03T10:01:02;10.65;;;5.45;;
74245;SDS011;62601;51.044;13.788;2022-11-03T10:03:24;9.93;;;3.92;;
74245;SDS011;62601;51.044;13.788;2022-11-03T10:05:45;8.35;;;5.80;;
74245;SDS011;62601;51.044;13.788;2022-11-03T10:08:09;4.68;;;3.08;;
74245;SDS011;62601;51.044;13.788;2022-11-03T10:10:41;6.70;;;3.20;;
74245;SDS011;62601;51.044;13.788;2022-11-03T10:13:03;4.53;;;2.60;;
74245;SDS011;62601;51.044;13.788;2022-11-03T10:15:25;8.82;;;3.90;;
74245;SDS011;62601;51.044;13.788;2022-11-03T10:17:47;5.80;;;2.85;;
74245;SDS011;62601;51.044;13.788;2022-11-03T10:20:11;6.75;;;4.40;;
74245;SDS011;62601;51.044;13.788;2022-11-03T10:22:33;6.47;;;4.00;;
74245;SDS011;62601;51.044;13.788;2022-11-03T10:27:33;4.30;;;2.90;;
74245;SDS011;62601;51.044;13.788;2022-11-03T10:30:05;6.15;;;2.60;;
74245;SDS011;62601;51.044;13.788;2022-11-03T10:32:36;4.97;;;2.88;;
74245;SDS011;62601;51.044;13.788;2022-11-03T10:34:57;5.53;;;2.58;;
74245;SDS011;62601;51.044;13.788;2022-11-03T10:37:25;3.63;;;1.98;;
74245;SDS011;62601;51.044;13.788;2022-11-03T10:39:47;5.32;;;2.45;;
74245;SDS011;62601;51.044;13.788;2022-11-03T10:42:15;7.20;;;1.83;;
74245;SDS011;62601;51.044;13.788;2022-11-03T10:44:37;5.87;;;2.13;;
74245;SDS011;62601;51.044;13.788;2022-11-03T10:47:03;3.53;;;2.03;;
74245;SDS011;62601;51.044;13.788;2022-11-03T10:49:28;3.80;;;2.10;;
74245;SDS011;62601;51.044;13.788;2022-11-03T10:51:50;4.03;;;1.73;;
74245;SDS011;62601;51.044;13.788;2022-11-03T10:54:12;4.57;;;1.90;;
74245;SDS011;62601;51.044;13.788;2022-11-03T10:56:34;3.70;;;1.80;;
74245;SDS011;62601;51.044;13.788;2022-11-03T10:58:56;5.90;;;1.92;;
74245;SDS011;62601;51.044;13.788;2022-11-03T11:01:17;4.57;;;2.20;;
74245;SDS011;62601;51.044;13.788;2022-11-03T11:03:40;6.43;;;2.10;;
74245;SDS011;62601;51.044;13.788;2022-11-03T11:06:02;6.30;;;2.00;;
74245;SDS011;62601;51.044;13.788;2022-11-03T11:08:22;5.27;;;2.40;;
74245;SDS011;62601;51.044;13.788;2022-11-03T11:10:44;4.87;;;2.10;;
74245;SDS011;62601;51.044;13.788;2022-11-03T11:15:53;4.33;;;2.13;;
74245;SDS011;62601;51.044;13.788;2022-11-03T11:20:53;3.20;;;1.97;;
74245;SDS011;62601;51.044;13.788;2022-11-03T11:31:31;5.40;;;2.57;;
74245;SDS011;62601;51.044;13.788;2022-11-03T11:36:30;2.53;;;1.87;;
74245;SDS011;62601;51.044;13.788;2022-11-03T11:38:53;4.00;;;2.05;;
74245;SDS011;62601;51.044;13.788;2022-11-03T11:41:15;6.70;;;2.23;;
74245;SDS011;62601;51.044;13.788;2022-11-03T11:43:36;3.40;;;2.10;;
74245;SDS011;62601;51.044;13.788;2022-11-03T11:48:36;6.10;;;3.30;;
74245;SDS011;62601;51.044;13.788;2022-11-03T11:51:01;4.93;;;2.40;;
74245;SDS011;62601;51.044;13.788;2022-11-03T11:53:23;3.90;;;2.30;;
74245;SDS011;62601;51.044;13.788;2022-11-03T11:55:48;10.50;;;3.03;;
74245;SDS011;62601;51.044;13.788;2022-11-03T12:00:51;7.90;;;2.20;;
74245;SDS011;62601;51.044;13.788;2022-11-03T12:03:12;4.63;;;2.73;;
74245;SDS011;62601;51.044;13.788;2022-11-03T12:05:35;6.40;;;2.57;;
74245;SDS011;62601;51.044;13.788;2022-11-03T12:07:56;8.70;;;2.50;;
74245;SDS011;62601;51.044;13.788;2022-11-03T12:10:19;5.10;;;2.70;;
74245;SDS011;62601;51.044;13.788;2022-11-03T12:12:49;5.40;;;2.80;;
74245;SDS011;62601;51.044;13.788;2022-11-03T12:17:49;6.43;;;2.87;;
74245;SDS011;62601;51.044;13.788;2022-11-03T12:22:49;3.33;;;2.13;;
74245;SDS011;62601;51.044;13.788;2022-11-03T12:25:32;7.47;;;2.80;;
74245;SDS011;62601;51.044;13.788;2022-11-03T12:27:53;5.03;;;3.00;;
74245;SDS011;62601;51.044;13.788;2022-11-03T12:30:15;2.90;;;2.27;;
74245;SDS011;62601;51.044;13.788;2022-11-03T12:32:37;7.90;;;3.07;;
74245;SDS011;62601;51.044;13.788;2022-11-03T12:34:58;5.40;;;2.93;;
74245;SDS011;62601;51.044;13.788;2022-11-03T12:37:20;4.93;;;3.07;;
74245;SDS011;62601;51.044;13.788;2022-11-03T12:39:42;11.23;;;3.97;;
74245;SDS011;62601;51.044;13.788;2022-11-03T12:42:04;9.40;;;3.73;;
74245;SDS011;62601;51.044;13.788;2022-11-03T12:44:28;7.43;;;3.83;;
74245;SDS011;62601;51.044;13.788;2022-11-03T12:46:52;6.67;;;4.00;;
74245;SDS011;62601;51.044;13.788;2022-11-03T12:49:14;5.63;;;4.10;;
74245;SDS011;62601;51.044;13.788;2022-11-03T12:51:35;9.27;;;4.83;;
74245;SDS011;62601;51.044;13.788;2022-11-03T12:53:56;5.30;;;3.50;;
74245;SDS011;62601;51.044;13.788;2022-11-03T12:56:18;7.23;;;3.90;;
74245;SDS011;62601;51.044;13.788;2022-11-03T12:58:38;8.07;;;4.00;;
74245;SDS011;62601;51.044;13.788;2022-11-03T13:00:59;11.30;;;4.50;;
74245;SDS011;62601;51.044;13.788;2022-11-03T13:03:21;5.67;;;4.00;;
74245;SDS011;62601;51.044;13.788;2022-11-03T13:05:42;8.10;;;5.00;;
74245;SDS011;62601;51.044;13.788;2022-11-03T13:08:03;9.13;;;5.50;;
74245;SDS011;62601;51.044;13.788;2022-11-03T13:10:25;8.80;;;4.40;;
74245;SDS011;62601;51.044;13.788;2022-11-03T13:12:46;7.40;;;4.40;;
74245;SDS011;62601;51.044;13.788;2022-11-03T13:15:07;10.40;;;4.03;;
74245;SDS011;62601;51.044;13.788;2022-11-03T13:17:29;13.20;;;5.10;;
74245;SDS011;62601;51.044;13.788;2022-11-03T13:19:50;11.87;;;4.67;;
74245;SDS011;62601;51.044;13.788;2022-11-03T13:22:11;7.07;;;4.80;;
74245;SDS011;62601;51.044;13.788;2022-11-03T13:24:33;8.23;;;4.33;;
74245;SDS011;62601;51.044;13.788;2022-11-03T13:26:55;7.57;;;5.13;;
74245;SDS011;62601;51.044;13.788;2022-11-03T13:29:16;7.77;;;4.53;;
74245;SDS011;62601;51.044;13.788;2022-11-03T13:31:38;7.37;;;4.23;;
74245;SDS011;62601;51.044;13.788;2022-11-03T13:33:59;5.77;;;4.03;;
74245;SDS011;62601;51.044;13.788;2022-11-03T13:36:20;10.63;;;4.90;;
74245;SDS011;62601;51.044;13.788;2022-11-03T13:38:42;6.03;;;4.50;;
74245;SDS011;62601;51.044;13.788;2022-11-03T13:41:03;6.33;;;4.37;;
74245;SDS011;62601;51.044;13.788;2022-11-03T13:43:25;7.93;;;4.23;;
74245;SDS011;62601;51.044;13.788;2022-11-03T13:45:49;6.33;;;4.03;;
74245;SDS011;62601;51.044;13.788;2022-11-03T13:48:10;9.37;;;4.90;;
74245;SDS011;62601;51.044;13.788;2022-11-03T13:50:31;6.53;;;4.47;;
74245;SDS011;62601;51.044;13.788;2022-11-03T13:52:51;7.20;;;4.67;;
74245;SDS011;62601;51.044;13.788;2022-11-03T13:55:13;7.30;;;4.60;;
74245;SDS011;62601;51.044;13.788;2022-11-03T13:57:34;8.07;;;4.60;;
74245;SDS011;62601;51.044;13.788;2022-11-03T13:59:55;8.13;;;5.23;;
74245;SDS011;62601;51.044;13.788;2022-11-03T14:02:17;5.70;;;4.60;;
74245;SDS011;62601;51.044;13.788;2022-11-03T14:04:39;8.47;;;4.80;;
74245;SDS011;62601;51.044;13.788;2022-11-03T14:07:00;6.60;;;4.57;;
74245;SDS011;62601;51.044;13.788;2022-11-03T14:09:21;6.87;;;4.90;;
74245;SDS011;62601;51.044;13.788;2022-11-03T14:11:42;7.37;;;5.33;;
74245;SDS011;62601;51.044;13.788;2022-11-03T14:14:04;8.27;;;5.37;;
74245;SDS011;62601;51.044;13.788;2022-11-03T14:16:25;9.23;;;5.33;;
74245;SDS011;62601;51.044;13.788;2022-11-03T14:18:47;5.95;;;4.53;;
74245;SDS011;62601;51.044;13.788;2022-11-03T14:21:08;8.50;;;5.60;;
74245;SDS011;62601;51.044;13.788;2022-11-03T14:23:29;8.27;;;5.17;;
74245;SDS011;62601;51.044;13.788;2022-11-03T14:25:50;7.53;;;4.73;;
74245;SDS011;62601;51.044;13.788;2022-11-03T14:28:11;10.97;;;4.90;;
74245;SDS011;62601;51.044;13.788;2022-11-03T14:30:34;8.70;;;6.20;;
74245;SDS011;62601;51.044;13.788;2022-11-03T14:32:55;14.25;;;7.25;;
74245;SDS011;62601;51.044;13.788;2022-11-03T14:35:16;22.60;;;6.93;;
74245;SDS011;62601;51.044;13.788;2022-11-03T14:37:38;8.80;;;5.90;;
74245;SDS011;62601;51.044;13.788;2022-11-03T14:39:59;9.60;;;5.32;;
74245;SDS011;62601;51.044;13.788;2022-11-03T14:42:21;13.13;;;7.22;;
74245;SDS011;62601;51.044;13.788;2022-11-03T14:44:43;35.80;;;6.85;;
74245;SDS011;62601;51.044;13.788;2022-11-03T14:47:09;8.32;;;6.20;;
74245;SDS011;62601;51.044;13.788;2022-11-03T14:49:30;14.88;;;7.03;;
74245;SDS011;62601;51.044;13.788;2022-11-03T14:51:52;13.40;;;6.40;;
74245;SDS011;62601;51.044;13.788;2022-11-03T14:54:13;15.43;;;9.80;;
74245;SDS011;62601;51.044;13.788;2022-11-03T14:56:35;10.90;;;6.65;;
74245;SDS011;62601;51.044;13.788;2022-11-03T14:58:56;7.60;;;6.15;;